DEGAL EDWS-EDDG
Flight info
| Callsign | DEGAL |
|---|---|
| Flight time | 0h 42m |
| Altitude | 2000 |
| Route | DCT |
| Aircraft | C208/L-SDLY/S |
Departure
| Time | 2026-04-25 12:11 |
|---|---|
| Airport | Norden-Norddeich Airport (EDWS) |
Arrival
| Time | 2026-04-25 12:53 |
|---|---|
| Airport | Münster Osnabrück Airport (EDDG) |
| Time | Latitude | Longitude | Altitude | Speed | Heading |
|---|---|---|---|---|---|
| 2026-04-25 12:04 | 53.63184 | 7.19207 | 5 ft | 0 kts | 83° |
| 2026-04-25 12:06 | 53.63181 | 7.19177 | 10 ft | 0 kts | 83° |
| 2026-04-25 12:06 | 53.63167 | 7.19195 | 11 ft | 0 kts | 159° |
| 2026-04-25 12:07 | 53.63167 | 7.19196 | 11 ft | 1 kts | 160° |
| 2026-04-25 12:08 | 53.63138 | 7.19168 | 11 ft | 10 kts | 234° |
| 2026-04-25 12:08 | 53.63046 | 7.19182 | 12 ft | 14 kts | 163° |
| 2026-04-25 12:08 | 53.63020 | 7.19213 | 12 ft | 1 kts | 352° |
| 2026-04-25 12:08 | 53.63021 | 7.19213 | 12 ft | 0 kts | 340° |
| 2026-04-25 12:10 | 53.63161 | 7.19124 | 11 ft | 45 kts | 338° |
| 2026-04-25 12:10 | 53.63567 | 7.18889 | 91 ft | 72 kts | 338° |
| 2026-04-25 12:11 | 53.64106 | 7.18733 | 264 ft | 88 kts | 342° |
| 2026-04-25 12:11 | 53.64772 | 7.18552 | 448 ft | 101 kts | 342° |
| 2026-04-25 12:11 | 53.65461 | 7.18287 | 657 ft | 100 kts | 319° |
| 2026-04-25 12:11 | 53.65644 | 7.17224 | 860 ft | 99 kts | 262° |
| 2026-04-25 12:12 | 53.65474 | 7.16123 | 1149 ft | 96 kts | 253° |
| 2026-04-25 12:12 | 53.65135 | 7.15569 | 1280 ft | 113 kts | 209° |
| 2026-04-25 12:12 | 53.63985 | 7.15837 | 1428 ft | 138 kts | 173° |
| 2026-04-25 12:12 | 53.63006 | 7.16174 | 1473 ft | 149 kts | 176° |
| 2026-04-25 12:13 | 53.61962 | 7.16480 | 1498 ft | 156 kts | 177° |
| 2026-04-25 12:13 | 53.60871 | 7.16796 | 1504 ft | 161 kts | 177° |
| 2026-04-25 12:13 | 53.59757 | 7.17145 | 1498 ft | 165 kts | 175° |
| 2026-04-25 12:13 | 53.58633 | 7.17597 | 1492 ft | 166 kts | 172° |
| 2026-04-25 12:14 | 53.57518 | 7.18086 | 1491 ft | 164 kts | 171° |
| 2026-04-25 12:14 | 53.56424 | 7.18575 | 1499 ft | 162 kts | 171° |
| 2026-04-25 12:14 | 53.55341 | 7.19080 | 1504 ft | 161 kts | 170° |
| 2026-04-25 12:14 | 53.54260 | 7.19583 | 1502 ft | 161 kts | 170° |
| 2026-04-25 12:15 | 53.53181 | 7.20090 | 1506 ft | 161 kts | 170° |
| 2026-04-25 12:15 | 53.52100 | 7.20604 | 1513 ft | 162 kts | 170° |
| 2026-04-25 12:15 | 53.51047 | 7.21110 | 1666 ft | 153 kts | 170° |
| 2026-04-25 12:15 | 53.50042 | 7.21596 | 1813 ft | 148 kts | 170° |
| 2026-04-25 12:16 | 53.49068 | 7.22065 | 1944 ft | 149 kts | 170° |
| 2026-04-25 12:16 | 53.48057 | 7.22531 | 1980 ft | 153 kts | 172° |
| 2026-04-25 12:16 | 53.47012 | 7.22952 | 1998 ft | 156 kts | 173° |
| 2026-04-25 12:16 | 53.45943 | 7.23346 | 1991 ft | 158 kts | 174° |
| 2026-04-25 12:17 | 53.44864 | 7.23724 | 2000 ft | 159 kts | 174° |
| 2026-04-25 12:17 | 53.43785 | 7.24090 | 2006 ft | 160 kts | 175° |
| 2026-04-25 12:17 | 53.42692 | 7.24433 | 1998 ft | 160 kts | 176° |
| 2026-04-25 12:17 | 53.41593 | 7.24768 | 2000 ft | 161 kts | 176° |
| 2026-04-25 12:18 | 53.40493 | 7.25093 | 1994 ft | 160 kts | 176° |
| 2026-04-25 12:18 | 53.39393 | 7.25398 | 1998 ft | 160 kts | 176° |
| 2026-04-25 12:18 | 53.38297 | 7.25699 | 1997 ft | 159 kts | 176° |
| 2026-04-25 12:18 | 53.37204 | 7.26001 | 2000 ft | 159 kts | 176° |
| 2026-04-25 12:19 | 53.35369 | 7.26536 | 1996 ft | 161 kts | 176° |
| 2026-04-25 12:19 | 53.33913 | 7.26971 | 2000 ft | 160 kts | 176° |
| 2026-04-25 12:19 | 53.32813 | 7.27303 | 2004 ft | 161 kts | 176° |
| 2026-04-25 12:20 | 53.31714 | 7.27621 | 2004 ft | 160 kts | 176° |
| 2026-04-25 12:20 | 53.30616 | 7.27924 | 2009 ft | 160 kts | 176° |
| 2026-04-25 12:20 | 53.29515 | 7.28228 | 1989 ft | 160 kts | 176° |
| 2026-04-25 12:20 | 53.28414 | 7.28541 | 1995 ft | 160 kts | 176° |
| 2026-04-25 12:21 | 53.27316 | 7.28857 | 1989 ft | 160 kts | 177° |
| 2026-04-25 12:21 | 53.26218 | 7.29065 | 2002 ft | 158 kts | 182° |
| 2026-04-25 12:21 | 53.25124 | 7.29150 | 2000 ft | 157 kts | 184° |
| 2026-04-25 12:21 | 53.24026 | 7.29197 | 2003 ft | 158 kts | 185° |
| 2026-04-25 12:22 | 53.22923 | 7.29225 | 1998 ft | 159 kts | 185° |
| 2026-04-25 12:22 | 53.21832 | 7.29243 | 1988 ft | 159 kts | 185° |
| 2026-04-25 12:22 | 53.20733 | 7.29219 | 1993 ft | 157 kts | 190° |
| 2026-04-25 12:22 | 53.19649 | 7.29000 | 1996 ft | 157 kts | 195° |
| 2026-04-25 12:23 | 53.18586 | 7.28630 | 1985 ft | 154 kts | 202° |
| 2026-04-25 12:23 | 53.17582 | 7.28050 | 1980 ft | 151 kts | 207° |
| 2026-04-25 12:23 | 53.16603 | 7.27416 | 1984 ft | 151 kts | 207° |
| 2026-04-25 12:23 | 53.15623 | 7.26760 | 1992 ft | 152 kts | 208° |
| 2026-04-25 12:24 | 53.14648 | 7.26101 | 1979 ft | 151 kts | 208° |
| 2026-04-25 12:24 | 53.13668 | 7.25471 | 1991 ft | 151 kts | 206° |
| 2026-04-25 12:24 | 53.12658 | 7.24939 | 1999 ft | 153 kts | 201° |
| 2026-04-25 12:24 | 53.11627 | 7.24476 | 1990 ft | 153 kts | 201° |
| 2026-04-25 12:25 | 53.10624 | 7.23913 | 2013 ft | 152 kts | 205° |
| 2026-04-25 12:25 | 53.09598 | 7.23412 | 2000 ft | 155 kts | 200° |
| 2026-04-25 12:25 | 53.08532 | 7.23091 | 1992 ft | 156 kts | 193° |
| 2026-04-25 12:25 | 53.07796 | 7.22941 | 1993 ft | 156 kts | 191° |
| 2026-04-25 12:26 | 53.06712 | 7.22754 | 2023 ft | 157 kts | 191° |
| 2026-04-25 12:26 | 53.05642 | 7.22586 | 2009 ft | 156 kts | 190° |
| 2026-04-25 12:26 | 53.04563 | 7.22418 | 2014 ft | 156 kts | 190° |
| 2026-04-25 12:26 | 53.03477 | 7.22256 | 2046 ft | 158 kts | 189° |
| 2026-04-25 12:27 | 53.02383 | 7.22143 | 2011 ft | 157 kts | 188° |
| 2026-04-25 12:27 | 53.01276 | 7.22167 | 2107 ft | 163 kts | 179° |
| 2026-04-25 12:27 | 53.00127 | 7.22363 | 2094 ft | 167 kts | 177° |
| 2026-04-25 12:27 | 52.98980 | 7.22613 | 2038 ft | 165 kts | 176° |
| 2026-04-25 12:28 | 52.97854 | 7.22890 | 2008 ft | 162 kts | 175° |
| 2026-04-25 12:28 | 52.96736 | 7.23167 | 2039 ft | 162 kts | 176° |
| 2026-04-25 12:28 | 52.95998 | 7.23343 | 2045 ft | 162 kts | 176° |
| 2026-04-25 12:28 | 52.94884 | 7.23610 | 2026 ft | 161 kts | 176° |
| 2026-04-25 12:29 | 52.93774 | 7.23754 | 2044 ft | 159 kts | 184° |
| 2026-04-25 12:29 | 52.92665 | 7.23699 | 2052 ft | 159 kts | 188° |
| 2026-04-25 12:29 | 52.91554 | 7.23503 | 2081 ft | 161 kts | 193° |
| 2026-04-25 12:29 | 52.90446 | 7.23208 | 2056 ft | 160 kts | 195° |
| 2026-04-25 12:30 | 52.89375 | 7.22810 | 2019 ft | 154 kts | 203° |
| 2026-04-25 12:30 | 52.88383 | 7.22172 | 2030 ft | 152 kts | 208° |
| 2026-04-25 12:30 | 52.87426 | 7.21463 | 2007 ft | 149 kts | 210° |
| 2026-04-25 12:30 | 52.86489 | 7.20743 | 2036 ft | 149 kts | 210° |
| 2026-04-25 12:31 | 52.85538 | 7.20038 | 2040 ft | 151 kts | 208° |
| 2026-04-25 12:31 | 52.84563 | 7.19410 | 2021 ft | 150 kts | 206° |
| 2026-04-25 12:31 | 52.83587 | 7.18808 | 2028 ft | 150 kts | 206° |
| 2026-04-25 12:31 | 52.82602 | 7.18206 | 2080 ft | 153 kts | 205° |
| 2026-04-25 12:32 | 52.81592 | 7.17603 | 2019 ft | 155 kts | 205° |
| 2026-04-25 12:32 | 52.80581 | 7.17004 | 1997 ft | 153 kts | 205° |
| 2026-04-25 12:32 | 52.79585 | 7.16409 | 1990 ft | 151 kts | 205° |
| 2026-04-25 12:32 | 52.78590 | 7.15853 | 1979 ft | 151 kts | 201° |
| 2026-04-25 12:33 | 52.77560 | 7.15445 | 2074 ft | 157 kts | 195° |
| 2026-04-25 12:33 | 52.76456 | 7.15174 | 2094 ft | 162 kts | 193° |
| 2026-04-25 12:33 | 52.75328 | 7.14955 | 2056 ft | 163 kts | 190° |
| 2026-04-25 12:33 | 52.74197 | 7.14806 | 2055 ft | 163 kts | 189° |
| 2026-04-25 12:34 | 52.73043 | 7.14736 | 2093 ft | 167 kts | 185° |
| 2026-04-25 12:34 | 52.71887 | 7.14762 | 2033 ft | 164 kts | 183° |
| 2026-04-25 12:34 | 52.70754 | 7.14823 | 2075 ft | 164 kts | 181° |
| 2026-04-25 12:34 | 52.69981 | 7.14924 | 2077 ft | 166 kts | 178° |
| 2026-04-25 12:35 | 52.68474 | 7.15360 | 2035 ft | 166 kts | 172° |
| 2026-04-25 12:35 | 52.67364 | 7.15819 | 2003 ft | 163 kts | 168° |
| 2026-04-25 12:35 | 52.66285 | 7.16331 | 1993 ft | 160 kts | 168° |
| 2026-04-25 12:35 | 52.65213 | 7.16779 | 2009 ft | 159 kts | 171° |
| 2026-04-25 12:36 | 52.64142 | 7.17184 | 1991 ft | 157 kts | 172° |
| 2026-04-25 12:36 | 52.63066 | 7.17587 | 2010 ft | 159 kts | 172° |
| 2026-04-25 12:36 | 52.61991 | 7.17985 | 1994 ft | 158 kts | 172° |
| 2026-04-25 12:36 | 52.60927 | 7.18369 | 1991 ft | 155 kts | 174° |
| 2026-04-25 12:37 | 52.59853 | 7.18589 | 2066 ft | 157 kts | 181° |
| 2026-04-25 12:37 | 52.58766 | 7.18566 | 2062 ft | 157 kts | 188° |
| 2026-04-25 12:37 | 52.57673 | 7.18394 | 2095 ft | 159 kts | 191° |
| 2026-04-25 12:37 | 52.56565 | 7.18170 | 2105 ft | 161 kts | 192° |
| 2026-04-25 12:38 | 52.55441 | 7.17951 | 2139 ft | 165 kts | 191° |
| 2026-04-25 12:38 | 52.54294 | 7.17814 | 2080 ft | 164 kts | 186° |
| 2026-04-25 12:38 | 52.53153 | 7.17807 | 2093 ft | 165 kts | 183° |
| 2026-04-25 12:38 | 52.52003 | 7.17901 | 2088 ft | 166 kts | 180° |
| 2026-04-25 12:39 | 52.50845 | 7.18125 | 2100 ft | 168 kts | 175° |
| 2026-04-25 12:39 | 52.49705 | 7.18469 | 2069 ft | 166 kts | 171° |
| 2026-04-25 12:39 | 52.48596 | 7.18960 | 2059 ft | 165 kts | 168° |
| 2026-04-25 12:39 | 52.47501 | 7.19539 | 2043 ft | 165 kts | 163° |
| 2026-04-25 12:40 | 52.46464 | 7.20322 | 2018 ft | 163 kts | 155° |
| 2026-04-25 12:40 | 52.45501 | 7.21286 | 2019 ft | 162 kts | 152° |
| 2026-04-25 12:40 | 52.44506 | 7.22181 | 2061 ft | 163 kts | 161° |
| 2026-04-25 12:40 | 52.43447 | 7.22790 | 2030 ft | 159 kts | 170° |
| 2026-04-25 12:41 | 52.42370 | 7.23178 | 2032 ft | 158 kts | 175° |
| 2026-04-25 12:41 | 52.41278 | 7.23403 | 2062 ft | 159 kts | 180° |
| 2026-04-25 12:41 | 52.40174 | 7.23516 | 2040 ft | 159 kts | 182° |
| 2026-04-25 12:41 | 52.39064 | 7.23600 | 2067 ft | 160 kts | 183° |
| 2026-04-25 12:42 | 52.37958 | 7.23655 | 2107 ft | 162 kts | 185° |
| 2026-04-25 12:42 | 52.37192 | 7.23676 | 2138 ft | 165 kts | 184° |
| 2026-04-25 12:42 | 52.35668 | 7.23788 | 2062 ft | 165 kts | 178° |
| 2026-04-25 12:42 | 52.34594 | 7.24402 | 2042 ft | 167 kts | 146° |
| 2026-04-25 12:43 | 52.33785 | 7.25796 | 2121 ft | 174 kts | 120° |
| 2026-04-25 12:43 | 52.33422 | 7.27679 | 2078 ft | 173 kts | 104° |
| 2026-04-25 12:43 | 52.33011 | 7.31478 | 2115 ft | 171 kts | 91° |
| 2026-04-25 12:44 | 52.32993 | 7.33445 | 2099 ft | 174 kts | 87° |
| 2026-04-25 12:44 | 52.33028 | 7.35417 | 2056 ft | 172 kts | 86° |
| 2026-04-25 12:44 | 52.33138 | 7.39328 | 2076 ft | 172 kts | 88° |
| 2026-04-25 12:45 | 52.33045 | 7.41290 | 2118 ft | 175 kts | 101° |
| 2026-04-25 12:45 | 52.32648 | 7.43179 | 2175 ft | 178 kts | 115° |
| 2026-04-25 12:45 | 52.31486 | 7.46811 | 2150 ft | 181 kts | 122° |
| 2026-04-25 12:46 | 52.30765 | 7.48483 | 2100 ft | 177 kts | 131° |
| 2026-04-25 12:46 | 52.29998 | 7.49962 | 1993 ft | 165 kts | 133° |
| 2026-04-25 12:46 | 52.29290 | 7.51364 | 1927 ft | 156 kts | 128° |
| 2026-04-25 12:46 | 52.28684 | 7.52787 | 1795 ft | 149 kts | 125° |
| 2026-04-25 12:47 | 52.28175 | 7.54237 | 1692 ft | 145 kts | 120° |
| 2026-04-25 12:47 | 52.27721 | 7.55676 | 1655 ft | 139 kts | 119° |
| 2026-04-25 12:47 | 52.27303 | 7.57072 | 1626 ft | 137 kts | 117° |
| 2026-04-25 12:47 | 52.26898 | 7.58484 | 1599 ft | 137 kts | 117° |
| 2026-04-25 12:48 | 52.26472 | 7.59858 | 1584 ft | 136 kts | 121° |
| 2026-04-25 12:48 | 52.25948 | 7.61141 | 1566 ft | 136 kts | 132° |
| 2026-04-25 12:48 | 52.25295 | 7.62246 | 1594 ft | 136 kts | 141° |
| 2026-04-25 12:48 | 52.24586 | 7.63271 | 1585 ft | 137 kts | 142° |
| 2026-04-25 12:49 | 52.23870 | 7.64318 | 1595 ft | 139 kts | 141° |
| 2026-04-25 12:49 | 52.23166 | 7.65397 | 1577 ft | 138 kts | 141° |
| 2026-04-25 12:49 | 52.22417 | 7.66343 | 1625 ft | 138 kts | 159° |
| 2026-04-25 12:49 | 52.21497 | 7.66512 | 1648 ft | 134 kts | 187° |
| 2026-04-25 12:50 | 52.20563 | 7.66779 | 1654 ft | 136 kts | 166° |
| 2026-04-25 12:50 | 52.19754 | 7.67392 | 1473 ft | 124 kts | 155° |
| 2026-04-25 12:50 | 52.19013 | 7.68100 | 1328 ft | 122 kts | 154° |
| 2026-04-25 12:50 | 52.18353 | 7.68735 | 1200 ft | 99 kts | 156° |
| 2026-04-25 12:51 | 52.17791 | 7.69300 | 1060 ft | 93 kts | 155° |
| 2026-04-25 12:51 | 52.17235 | 7.69814 | 945 ft | 90 kts | 161° |
| 2026-04-25 12:51 | 52.16677 | 7.70236 | 796 ft | 88 kts | 162° |
| 2026-04-25 12:51 | 52.16127 | 7.70642 | 751 ft | 85 kts | 163° |
| 2026-04-25 12:52 | 52.15566 | 7.71004 | 668 ft | 89 kts | 167° |
| 2026-04-25 12:52 | 52.14952 | 7.71241 | 552 ft | 90 kts | 180° |
| 2026-04-25 12:52 | 52.14349 | 7.71285 | 447 ft | 82 kts | 192° |
| 2026-04-25 12:52 | 52.13933 | 7.70814 | 384 ft | 75 kts | 249° |
| 2026-04-25 12:53 | 52.13791 | 7.69987 | 231 ft | 76 kts | 251° |
| 2026-04-25 12:53 | 52.13624 | 7.69255 | 163 ft | 58 kts | 254° |
| 2026-04-25 12:53 | 52.13524 | 7.68759 | 161 ft | 32 kts | 247° |
| 2026-04-25 12:53 | 52.13473 | 7.68500 | 161 ft | 20 kts | 255° |
| 2026-04-25 12:54 | 52.13429 | 7.68324 | 163 ft | 15 kts | 233° |
| 2026-04-25 12:54 | 52.13349 | 7.68271 | 163 ft | 12 kts | 173° |
| 2026-04-25 12:54 | 52.13273 | 7.68306 | 161 ft | 12 kts | 162° |
| 2026-04-25 12:54 | 52.13197 | 7.68345 | 160 ft | 9 kts | 173° |
| 2026-04-25 12:55 | 52.13153 | 7.68318 | 159 ft | 6 kts | 273° |
| 2026-04-25 12:55 | 52.13154 | 7.68309 | 159 ft | 0 kts | 270° |